sensor_id;sensor_type;location;lat;lon;timestamp;temperature;humidity
27803;DHT22;15182;48.174;11.562;2022-11-15T00:02:45;11.40;97.90
27803;DHT22;15182;48.174;11.562;2022-11-15T00:05:37;11.40;97.90
27803;DHT22;15182;48.174;11.562;2022-11-15T00:08:26;11.40;97.90
27803;DHT22;15182;48.174;11.562;2022-11-15T00:11:18;11.40;97.90
27803;DHT22;15182;48.174;11.562;2022-11-15T00:14:08;11.40;97.90
27803;DHT22;15182;48.174;11.562;2022-11-15T00:16:57;11.30;97.90
27803;DHT22;15182;48.174;11.562;2022-11-15T00:19:48;11.30;97.90
27803;DHT22;15182;48.174;11.562;2022-11-15T00:22:37;11.30;97.90
27803;DHT22;15182;48.174;11.562;2022-11-15T00:25:28;11.30;97.90
27803;DHT22;15182;48.174;11.562;2022-11-15T00:28:18;11.30;97.90
27803;DHT22;15182;48.174;11.562;2022-11-15T00:31:09;11.20;97.90
27803;DHT22;15182;48.174;11.562;2022-11-15T00:34:01;11.20;97.90
27803;DHT22;15182;48.174;11.562;2022-11-15T00:36:51;11.20;97.90
27803;DHT22;15182;48.174;11.562;2022-11-15T00:39:41;11.20;97.90
27803;DHT22;15182;48.174;11.562;2022-11-15T00:42:30;11.20;97.90
27803;DHT22;15182;48.174;11.562;2022-11-15T00:45:20;11.10;97.90
27803;DHT22;15182;48.174;11.562;2022-11-15T00:48:10;11.20;97.90
27803;DHT22;15182;48.174;11.562;2022-11-15T00:51:00;11.10;97.80
27803;DHT22;15182;48.174;11.562;2022-11-15T00:53:51;11.10;97.80
27803;DHT22;15182;48.174;11.562;2022-11-15T00:56:41;11.10;97.80
27803;DHT22;15182;48.174;11.562;2022-11-15T00:59:30;11.10;97.80
27803;DHT22;15182;48.174;11.562;2022-11-15T01:02:20;11.10;97.80
27803;DHT22;15182;48.174;11.562;2022-11-15T01:05:09;11.10;97.70
27803;DHT22;15182;48.174;11.562;2022-11-15T01:07:59;11.10;97.80
27803;DHT22;15182;48.174;11.562;2022-11-15T01:10:50;11.10;97.80
27803;DHT22;15182;48.174;11.562;2022-11-15T01:13:40;11.00;97.80
27803;DHT22;15182;48.174;11.562;2022-11-15T01:16:30;11.00;97.80
27803;DHT22;15182;48.174;11.562;2022-11-15T01:19:19;11.00;97.80
27803;DHT22;15182;48.174;11.562;2022-11-15T01:22:09;11.00;97.80
27803;DHT22;15182;48.174;11.562;2022-11-15T01:24:59;11.00;97.70
27803;DHT22;15182;48.174;11.562;2022-11-15T01:27:50;11.00;97.70
27803;DHT22;15182;48.174;11.562;2022-11-15T01:30:39;11.00;97.70
27803;DHT22;15182;48.174;11.562;2022-11-15T01:33:29;11.00;97.70
27803;DHT22;15182;48.174;11.562;2022-11-15T01:36:22;11.00;97.70
27803;DHT22;15182;48.174;11.562;2022-11-15T01:39:12;11.00;97.60
27803;DHT22;15182;48.174;11.562;2022-11-15T01:42:01;11.00;97.60
27803;DHT22;15182;48.174;11.562;2022-11-15T01:44:52;11.00;97.60
27803;DHT22;15182;48.174;11.562;2022-11-15T01:47:44;11.00;97.40
27803;DHT22;15182;48.174;11.562;2022-11-15T01:50:35;11.00;97.40
27803;DHT22;15182;48.174;11.562;2022-11-15T01:53:26;11.00;97.40
27803;DHT22;15182;48.174;11.562;2022-11-15T01:56:23;11.00;97.40
27803;DHT22;15182;48.174;11.562;2022-11-15T01:59:15;11.00;97.40
27803;DHT22;15182;48.174;11.562;2022-11-15T02:02:07;11.00;97.40
27803;DHT22;15182;48.174;11.562;2022-11-15T02:04:57;11.00;97.30
27803;DHT22;15182;48.174;11.562;2022-11-15T02:07:47;10.90;97.30
27803;DHT22;15182;48.174;11.562;2022-11-15T02:10:37;10.90;97.30
27803;DHT22;15182;48.174;11.562;2022-11-15T02:13:27;10.90;97.40
27803;DHT22;15182;48.174;11.562;2022-11-15T02:16:22;10.90;97.30
27803;DHT22;15182;48.174;11.562;2022-11-15T02:19:28;10.90;97.30
27803;DHT22;15182;48.174;11.562;2022-11-15T02:22:32;10.80;97.20
27803;DHT22;15182;48.174;11.562;2022-11-15T02:25:38;10.80;97.20
27803;DHT22;15182;48.174;11.562;2022-11-15T02:28:45;10.80;97.30
27803;DHT22;15182;48.174;11.562;2022-11-15T02:31:44;10.70;97.20
27803;DHT22;15182;48.174;11.562;2022-11-15T02:34:46;10.70;97.30
27803;DHT22;15182;48.174;11.562;2022-11-15T02:37:46;10.70;97.30
27803;DHT22;15182;48.174;11.562;2022-11-15T02:40:49;10.70;97.30
27803;DHT22;15182;48.174;11.562;2022-11-15T02:43:47;10.70;97.20
27803;DHT22;15182;48.174;11.562;2022-11-15T02:46:47;10.70;97.20
27803;DHT22;15182;48.174;11.562;2022-11-15T02:50:00;10.70;97.20
27803;DHT22;15182;48.174;11.562;2022-11-15T02:52:52;10.60;97.20
27803;DHT22;15182;48.174;11.562;2022-11-15T02:55:46;10.60;97.10
27803;DHT22;15182;48.174;11.562;2022-11-15T02:59:06;10.60;97.10
27803;DHT22;15182;48.174;11.562;2022-11-15T03:02:12;10.50;97.00
27803;DHT22;15182;48.174;11.562;2022-11-15T03:05:14;10.50;97.10
27803;DHT22;15182;48.174;11.562;2022-11-15T03:08:14;10.50;97.10
27803;DHT22;15182;48.174;11.562;2022-11-15T03:11:11;10.40;97.10
27803;DHT22;15182;48.174;11.562;2022-11-15T03:14:09;10.40;97.10
27803;DHT22;15182;48.174;11.562;2022-11-15T03:17:11;10.40;97.10
27803;DHT22;15182;48.174;11.562;2022-11-15T03:20:08;10.40;97.10
27803;DHT22;15182;48.174;11.562;2022-11-15T03:23:03;10.40;97.20
27803;DHT22;15182;48.174;11.562;2022-11-15T03:25:56;10.30;97.10
27803;DHT22;15182;48.174;11.562;2022-11-15T03:28:50;10.30;97.20
27803;DHT22;15182;48.174;11.562;2022-11-15T03:31:44;10.30;97.20
27803;DHT22;15182;48.174;11.562;2022-11-15T03:34:39;10.30;97.10
27803;DHT22;15182;48.174;11.562;2022-11-15T03:37:35;10.30;97.10
27803;DHT22;15182;48.174;11.562;2022-11-15T03:40:36;10.30;97.10
27803;DHT22;15182;48.174;11.562;2022-11-15T03:43:33;10.30;97.10
27803;DHT22;15182;48.174;11.562;2022-11-15T03:46:31;10.30;97.10
27803;DHT22;15182;48.174;11.562;2022-11-15T03:49:27;10.30;97.10
27803;DHT22;15182;48.174;11.562;2022-11-15T03:52:21;10.30;97.10
27803;DHT22;15182;48.174;11.562;2022-11-15T03:55:14;10.30;97.10
27803;DHT22;15182;48.174;11.562;2022-11-15T03:58:05;10.30;97.10
27803;DHT22;15182;48.174;11.562;2022-11-15T04:00:54;10.30;97.10
27803;DHT22;15182;48.174;11.562;2022-11-15T04:03:45;10.30;97.10
27803;DHT22;15182;48.174;11.562;2022-11-15T04:06:35;10.30;97.00
27803;DHT22;15182;48.174;11.562;2022-11-15T04:09:27;10.30;97.00
27803;DHT22;15182;48.174;11.562;2022-11-15T04:12:17;10.30;97.00
27803;DHT22;15182;48.174;11.562;2022-11-15T04:15:18;10.30;97.00
27803;DHT22;15182;48.174;11.562;2022-11-15T04:18:09;10.30;97.00
27803;DHT22;15182;48.174;11.562;2022-11-15T04:20:59;10.20;96.90
27803;DHT22;15182;48.174;11.562;2022-11-15T04:24:08;10.20;96.90
27803;DHT22;15182;48.174;11.562;2022-11-15T04:27:03;10.20;96.90
27803;DHT22;15182;48.174;11.562;2022-11-15T04:29:52;10.20;96.90
27803;DHT22;15182;48.174;11.562;2022-11-15T04:32:42;10.20;96.90
27803;DHT22;15182;48.174;11.562;2022-11-15T04:35:31;10.20;96.90
27803;DHT22;15182;48.174;11.562;2022-11-15T04:38:21;10.20;97.30
27803;DHT22;15182;48.174;11.562;2022-11-15T04:41:10;10.20;96.90
27803;DHT22;15182;48.174;11.562;2022-11-15T04:44:02;10.20;96.90
27803;DHT22;15182;48.174;11.562;2022-11-15T04:46:51;10.20;96.80
27803;DHT22;15182;48.174;11.562;2022-11-15T04:49:41;10.20;96.80
27803;DHT22;15182;48.174;11.562;2022-11-15T04:52:29;10.20;96.80
27803;DHT22;15182;48.174;11.562;2022-11-15T04:55:20;10.20;96.90
27803;DHT22;15182;48.174;11.562;2022-11-15T04:58:11;10.20;96.90
27803;DHT22;15182;48.174;11.562;2022-11-15T05:01:06;10.20;96.80
27803;DHT22;15182;48.174;11.562;2022-11-15T05:03:56;10.10;96.70
27803;DHT22;15182;48.174;11.562;2022-11-15T05:07:03;10.10;96.80
27803;DHT22;15182;48.174;11.562;2022-11-15T05:09:53;10.10;96.80
27803;DHT22;15182;48.174;11.562;2022-11-15T05:12:42;10.10;96.80
27803;DHT22;15182;48.174;11.562;2022-11-15T05:15:32;10.10;96.70
27803;DHT22;15182;48.174;11.562;2022-11-15T05:18:23;10.00;96.70
27803;DHT22;15182;48.174;11.562;2022-11-15T05:21:14;10.00;96.70
27803;DHT22;15182;48.174;11.562;2022-11-15T05:24:04;10.00;96.70
27803;DHT22;15182;48.174;11.562;2022-11-15T05:26:56;10.00;96.70
27803;DHT22;15182;48.174;11.562;2022-11-15T05:29:45;10.00;96.70
27803;DHT22;15182;48.174;11.562;2022-11-15T05:32:35;10.00;96.70
27803;DHT22;15182;48.174;11.562;2022-11-15T05:35:31;9.90;96.70
27803;DHT22;15182;48.174;11.562;2022-11-15T05:38:25;9.90;96.70
27803;DHT22;15182;48.174;11.562;2022-11-15T05:41:15;9.90;96.70
27803;DHT22;15182;48.174;11.562;2022-11-15T05:44:10;9.90;96.70
27803;DHT22;15182;48.174;11.562;2022-11-15T05:47:01;9.90;96.70
27803;DHT22;15182;48.174;11.562;2022-11-15T05:49:53;9.90;96.70
27803;DHT22;15182;48.174;11.562;2022-11-15T05:52:44;9.90;96.70
27803;DHT22;15182;48.174;11.562;2022-11-15T05:55:36;9.90;96.70
27803;DHT22;15182;48.174;11.562;2022-11-15T05:58:27;9.90;96.70
27803;DHT22;15182;48.174;11.562;2022-11-15T06:01:18;9.90;96.70
27803;DHT22;15182;48.174;11.562;2022-11-15T06:04:08;9.90;96.60
27803;DHT22;15182;48.174;11.562;2022-11-15T06:06:59;9.90;96.60
27803;DHT22;15182;48.174;11.562;2022-11-15T06:09:50;9.90;96.60
27803;DHT22;15182;48.174;11.562;2022-11-15T06:12:40;9.90;96.90
27803;DHT22;15182;48.174;11.562;2022-11-15T06:15:31;9.90;96.60
27803;DHT22;15182;48.174;11.562;2022-11-15T06:18:23;9.90;96.60
27803;DHT22;15182;48.174;11.562;2022-11-15T06:21:12;9.90;96.90
27803;DHT22;15182;48.174;11.562;2022-11-15T06:24:02;9.90;96.60
27803;DHT22;15182;48.174;11.562;2022-11-15T06:26:54;9.80;96.60
27803;DHT22;15182;48.174;11.562;2022-11-15T06:29:43;9.80;96.60
27803;DHT22;15182;48.174;11.562;2022-11-15T06:32:33;9.80;96.60
27803;DHT22;15182;48.174;11.562;2022-11-15T06:35:22;9.80;96.60
27803;DHT22;15182;48.174;11.562;2022-11-15T06:38:13;9.80;96.60
27803;DHT22;15182;48.174;11.562;2022-11-15T06:41:03;9.80;96.60
27803;DHT22;15182;48.174;11.562;2022-11-15T06:43:57;9.80;96.60
27803;DHT22;15182;48.174;11.562;2022-11-15T06:46:46;9.80;96.60
27803;DHT22;15182;48.174;11.562;2022-11-15T06:49:36;9.80;96.60
27803;DHT22;15182;48.174;11.562;2022-11-15T06:52:26;9.80;96.60
27803;DHT22;15182;48.174;11.562;2022-11-15T06:55:19;9.80;96.60
27803;DHT22;15182;48.174;11.562;2022-11-15T06:58:08;9.80;96.60
27803;DHT22;15182;48.174;11.562;2022-11-15T07:01:03;9.80;96.70
27803;DHT22;15182;48.174;11.562;2022-11-15T07:03:54;9.80;96.70
27803;DHT22;15182;48.174;11.562;2022-11-15T07:06:43;9.80;96.80
27803;DHT22;15182;48.174;11.562;2022-11-15T07:09:35;9.80;96.80
27803;DHT22;15182;48.174;11.562;2022-11-15T07:12:28;9.80;96.70
27803;DHT22;15182;48.174;11.562;2022-11-15T07:15:19;9.80;96.80
27803;DHT22;15182;48.174;11.562;2022-11-15T07:18:12;9.80;96.80
27803;DHT22;15182;48.174;11.562;2022-11-15T07:21:01;9.90;96.80
27803;DHT22;15182;48.174;11.562;2022-11-15T07:23:52;9.90;96.80
27803;DHT22;15182;48.174;11.562;2022-11-15T07:26:42;9.90;96.80
27803;DHT22;15182;48.174;11.562;2022-11-15T07:29:31;9.90;96.80
27803;DHT22;15182;48.174;11.562;2022-11-15T07:32:20;9.90;96.80
27803;DHT22;15182;48.174;11.562;2022-11-15T07:35:12;9.90;96.80
27803;DHT22;15182;48.174;11.562;2022-11-15T07:38:03;10.00;96.90
27803;DHT22;15182;48.174;11.562;2022-11-15T07:40:58;10.00;96.90
27803;DHT22;15182;48.174;11.562;2022-11-15T07:43:49;10.00;96.90
27803;DHT22;15182;48.174;11.562;2022-11-15T07:46:40;10.00;96.90
27803;DHT22;15182;48.174;11.562;2022-11-15T07:49:30;10.10;97.00
27803;DHT22;15182;48.174;11.562;2022-11-15T07:52:21;10.10;97.00
27803;DHT22;15182;48.174;11.562;2022-11-15T07:55:11;10.10;97.00
27803;DHT22;15182;48.174;11.562;2022-11-15T07:58:06;10.10;96.90
27803;DHT22;15182;48.174;11.562;2022-11-15T08:00:56;10.20;97.00
27803;DHT22;15182;48.174;11.562;2022-11-15T08:03:45;10.20;97.00
27803;DHT22;15182;48.174;11.562;2022-11-15T08:06:35;10.30;97.00
27803;DHT22;15182;48.174;11.562;2022-11-15T08:09:27;10.30;97.00
27803;DHT22;15182;48.174;11.562;2022-11-15T08:12:16;10.30;96.90
27803;DHT22;15182;48.174;11.562;2022-11-15T08:15:08;10.40;97.00
27803;DHT22;15182;48.174;11.562;2022-11-15T08:18:00;10.40;96.90
27803;DHT22;15182;48.174;11.562;2022-11-15T08:20:51;10.50;96.80
27803;DHT22;15182;48.174;11.562;2022-11-15T08:23:45;10.50;96.80
27803;DHT22;15182;48.174;11.562;2022-11-15T08:26:36;10.60;96.80
27803;DHT22;15182;48.174;11.562;2022-11-15T08:29:27;10.70;96.80
27803;DHT22;15182;48.174;11.562;2022-11-15T08:32:16;10.70;96.80
27803;DHT22;15182;48.174;11.562;2022-11-15T08:35:07;10.80;96.70
27803;DHT22;15182;48.174;11.562;2022-11-15T08:37:56;10.90;96.70
27803;DHT22;15182;48.174;11.562;2022-11-15T08:40:46;11.00;96.70
27803;DHT22;15182;48.174;11.562;2022-11-15T08:43:37;11.00;96.70
27803;DHT22;15182;48.174;11.562;2022-11-15T08:46:26;11.10;96.70
27803;DHT22;15182;48.174;11.562;2022-11-15T08:49:16;11.20;96.60
27803;DHT22;15182;48.174;11.562;2022-11-15T08:52:06;11.30;96.50
27803;DHT22;15182;48.174;11.562;2022-11-15T08:54:55;11.40;96.40
27803;DHT22;15182;48.174;11.562;2022-11-15T08:57:43;11.50;96.40
27803;DHT22;15182;48.174;11.562;2022-11-15T09:00:35;11.60;96.40
27803;DHT22;15182;48.174;11.562;2022-11-15T09:03:24;11.70;96.40
27803;DHT22;15182;48.174;11.562;2022-11-15T09:06:15;11.80;96.20
27803;DHT22;15182;48.174;11.562;2022-11-15T09:09:05;11.90;96.20
27803;DHT22;15182;48.174;11.562;2022-11-15T09:11:54;12.10;96.20
27803;DHT22;15182;48.174;11.562;2022-11-15T09:14:44;12.10;95.80
27803;DHT22;15182;48.174;11.562;2022-11-15T09:17:35;12.20;95.80
27803;DHT22;15182;48.174;11.562;2022-11-15T09:20:25;12.40;95.40
27803;DHT22;15182;48.174;11.562;2022-11-15T09:23:14;12.50;95.20
27803;DHT22;15182;48.174;11.562;2022-11-15T09:26:05;12.50;95.40
27803;DHT22;15182;48.174;11.562;2022-11-15T09:28:55;12.60;95.40
27803;DHT22;15182;48.174;11.562;2022-11-15T09:31:45;12.70;95.40
27803;DHT22;15182;48.174;11.562;2022-11-15T09:34:36;12.80;95.30
27803;DHT22;15182;48.174;11.562;2022-11-15T09:37:25;12.90;95.10
27803;DHT22;15182;48.174;11.562;2022-11-15T09:40:16;13.00;95.00
27803;DHT22;15182;48.174;11.562;2022-11-15T09:43:17;13.10;94.90
27803;DHT22;15182;48.174;11.562;2022-11-15T09:46:15;13.20;94.70
27803;DHT22;15182;48.174;11.562;2022-11-15T09:49:11;13.30;94.50
27803;DHT22;15182;48.174;11.562;2022-11-15T09:52:13;13.40;94.60
27803;DHT22;15182;48.174;11.562;2022-11-15T09:54:49;13.50;94.40
27803;DHT22;15182;48.174;11.562;2022-11-15T09:57:24;13.60;94.20
27803;DHT22;15182;48.174;11.562;2022-11-15T10:00:04;13.70;94.20
27803;DHT22;15182;48.174;11.562;2022-11-15T10:02:51;13.80;94.10
27803;DHT22;15182;48.174;11.562;2022-11-15T10:05:30;13.90;94.00
27803;DHT22;15182;48.174;11.562;2022-11-15T10:08:19;14.00;94.30
27803;DHT22;15182;48.174;11.562;2022-11-15T10:11:07;14.10;93.80
27803;DHT22;15182;48.174;11.562;2022-11-15T10:13:43;14.30;94.00
27803;DHT22;15182;48.174;11.562;2022-11-15T10:19:26;14.60;93.60
27803;DHT22;15182;48.174;11.562;2022-11-15T10:22:08;14.70;93.60
27803;DHT22;15182;48.174;11.562;2022-11-15T10:24:47;14.90;92.90
27803;DHT22;15182;48.174;11.562;2022-11-15T10:27:19;15.10;93.00
27803;DHT22;15182;48.174;11.562;2022-11-15T10:29:52;15.20;92.90
27803;DHT22;15182;48.174;11.562;2022-11-15T10:32:23;15.40;92.90
27803;DHT22;15182;48.174;11.562;2022-11-15T10:34:56;15.60;92.60
27803;DHT22;15182;48.174;11.562;2022-11-15T10:37:31;15.80;92.60
27803;DHT22;15182;48.174;11.562;2022-11-15T10:40:14;16.00;92.30
27803;DHT22;15182;48.174;11.562;2022-11-15T10:42:47;16.30;92.00
27803;DHT22;15182;48.174;11.562;2022-11-15T10:45:34;16.50;91.90
27803;DHT22;15182;48.174;11.562;2022-11-15T10:48:23;16.70;91.60
27803;DHT22;15182;48.174;11.562;2022-11-15T10:50:56;16.90;91.20
27803;DHT22;15182;48.174;11.562;2022-11-15T10:53:29;17.10;91.00
27803;DHT22;15182;48.174;11.562;2022-11-15T11:04:49;17.90;89.70
27803;DHT22;15182;48.174;11.562;2022-11-15T11:07:23;18.10;89.20
27803;DHT22;15182;48.174;11.562;2022-11-15T11:10:00;18.20;88.00
27803;DHT22;15182;48.174;11.562;2022-11-15T11:12:34;18.30;86.40
27803;DHT22;15182;48.174;11.562;2022-11-15T11:15:13;18.40;86.00
27803;DHT22;15182;48.174;11.562;2022-11-15T11:17:55;18.50;84.20
27803;DHT22;15182;48.174;11.562;2022-11-15T11:20:36;18.60;84.40
27803;DHT22;15182;48.174;11.562;2022-11-15T11:23:24;18.60;85.50
27803;DHT22;15182;48.174;11.562;2022-11-15T11:26:24;18.70;84.40
27803;DHT22;15182;48.174;11.562;2022-11-15T11:29:05;18.80;84.10
27803;DHT22;15182;48.174;11.562;2022-11-15T11:31:50;18.90;84.70
27803;DHT22;15182;48.174;11.562;2022-11-15T11:34:36;19.00;84.40
27803;DHT22;15182;48.174;11.562;2022-11-15T11:37:17;19.10;84.50
27803;DHT22;15182;48.174;11.562;2022-11-15T11:39:59;19.10;84.40
27803;DHT22;15182;48.174;11.562;2022-11-15T11:42:40;19.10;84.00
27803;DHT22;15182;48.174;11.562;2022-11-15T11:45:23;19.00;83.80
27803;DHT22;15182;48.174;11.562;2022-11-15T11:48:14;19.00;83.10
27803;DHT22;15182;48.174;11.562;2022-11-15T11:50:51;18.80;83.20
27803;DHT22;15182;48.174;11.562;2022-11-15T11:53:29;18.70;83.40
27803;DHT22;15182;48.174;11.562;2022-11-15T11:56:08;18.50;82.70
27803;DHT22;15182;48.174;11.562;2022-11-15T11:58:46;18.30;82.80
27803;DHT22;15182;48.174;11.562;2022-11-15T12:01:23;18.20;82.90
27803;DHT22;15182;48.174;11.562;2022-11-15T12:03:59;18.00;82.80
27803;DHT22;15182;48.174;11.562;2022-11-15T12:06:35;17.80;82.70
27803;DHT22;15182;48.174;11.562;2022-11-15T12:09:19;17.60;82.80
27803;DHT22;15182;48.174;11.562;2022-11-15T12:11:58;17.50;82.20
27803;DHT22;15182;48.174;11.562;2022-11-15T12:14:42;17.30;82.60
27803;DHT22;15182;48.174;11.562;2022-11-15T12:17:19;17.20;82.70
27803;DHT22;15182;48.174;11.562;2022-11-15T12:19:54;17.00;83.30
27803;DHT22;15182;48.174;11.562;2022-11-15T12:22:35;16.90;83.60
27803;DHT22;15182;48.174;11.562;2022-11-15T12:25:19;16.80;83.30
27803;DHT22;15182;48.174;11.562;2022-11-15T12:27:57;16.70;83.40
27803;DHT22;15182;48.174;11.562;2022-11-15T12:30:36;16.60;84.10
27803;DHT22;15182;48.174;11.562;2022-11-15T12:33:36;16.50;84.40
27803;DHT22;15182;48.174;11.562;2022-11-15T12:39:05;16.40;85.00
27803;DHT22;15182;48.174;11.562;2022-11-15T12:41:39;16.40;85.20
27803;DHT22;15182;48.174;11.562;2022-11-15T12:44:13;16.30;85.10
27803;DHT22;15182;48.174;11.562;2022-11-15T12:47:26;16.30;85.20
27803;DHT22;15182;48.174;11.562;2022-11-15T12:49:58;16.30;85.20
27803;DHT22;15182;48.174;11.562;2022-11-15T12:52:31;16.30;85.80
27803;DHT22;15182;48.174;11.562;2022-11-15T12:55:02;16.30;85.50
27803;DHT22;15182;48.174;11.562;2022-11-15T12:58:28;16.20;85.40
27803;DHT22;15182;48.174;11.562;2022-11-15T13:01:10;16.30;84.90
27803;DHT22;15182;48.174;11.562;2022-11-15T13:04:23;16.20;86.00
27803;DHT22;15182;48.174;11.562;2022-11-15T13:06:56;16.20;86.30
27803;DHT22;15182;48.174;11.562;2022-11-15T13:09:50;16.30;86.80
27803;DHT22;15182;48.174;11.562;2022-11-15T13:12:49;16.30;87.10
27803;DHT22;15182;48.174;11.562;2022-11-15T13:15:38;16.30;87.70
27803;DHT22;15182;48.174;11.562;2022-11-15T13:18:32;16.20;88.00
27803;DHT22;15182;48.174;11.562;2022-11-15T13:21:17;16.30;88.30
27803;DHT22;15182;48.174;11.562;2022-11-15T13:24:15;16.20;88.80
27803;DHT22;15182;48.174;11.562;2022-11-15T13:26:47;16.20;88.80
27803;DHT22;15182;48.174;11.562;2022-11-15T13:29:19;16.20;88.50
27803;DHT22;15182;48.174;11.562;2022-11-15T13:31:52;16.20;88.40
27803;DHT22;15182;48.174;11.562;2022-11-15T13:34:28;16.20;88.60
27803;DHT22;15182;48.174;11.562;2022-11-15T13:37:01;16.20;88.30
27803;DHT22;15182;48.174;11.562;2022-11-15T13:39:33;16.20;88.40
27803;DHT22;15182;48.174;11.562;2022-11-15T13:42:13;16.20;88.70
27803;DHT22;15182;48.174;11.562;2022-11-15T13:44:55;16.20;88.60
27803;DHT22;15182;48.174;11.562;2022-11-15T13:47:29;16.20;88.70
27803;DHT22;15182;48.174;11.562;2022-11-15T13:50:01;16.20;88.90
27803;DHT22;15182;48.174;11.562;2022-11-15T13:52:37;16.10;88.90
27803;DHT22;15182;48.174;11.562;2022-11-15T13:55:14;16.10;88.70
27803;DHT22;15182;48.174;11.562;2022-11-15T13:57:49;16.10;88.80
27803;DHT22;15182;48.174;11.562;2022-11-15T14:00:32;16.10;88.60
27803;DHT22;15182;48.174;11.562;2022-11-15T14:03:15;16.10;88.80
27803;DHT22;15182;48.174;11.562;2022-11-15T14:05:59;16.10;89.10
27803;DHT22;15182;48.174;11.562;2022-11-15T14:08:35;16.10;89.30
27803;DHT22;15182;48.174;11.562;2022-11-15T14:11:17;16.10;89.40
27803;DHT22;15182;48.174;11.562;2022-11-15T14:14:09;16.10;89.50
27803;DHT22;15182;48.174;11.562;2022-11-15T14:16:44;16.10;89.40
27803;DHT22;15182;48.174;11.562;2022-11-15T14:19:34;16.10;89.90
27803;DHT22;15182;48.174;11.562;2022-11-15T14:22:22;16.10;90.10
27803;DHT22;15182;48.174;11.562;2022-11-15T14:25:12;16.00;90.30
27803;DHT22;15182;48.174;11.562;2022-11-15T14:28:14;16.00;90.40
27803;DHT22;15182;48.174;11.562;2022-11-15T14:30:46;16.00;90.50
27803;DHT22;15182;48.174;11.562;2022-11-15T14:33:21;16.00;90.50
27803;DHT22;15182;48.174;11.562;2022-11-15T14:36:01;16.00;90.70
27803;DHT22;15182;48.174;11.562;2022-11-15T14:38:34;16.00;90.70
27803;DHT22;15182;48.174;11.562;2022-11-15T14:41:08;16.00;90.80
27803;DHT22;15182;48.174;11.562;2022-11-15T14:43:41;16.00;90.80
27803;DHT22;15182;48.174;11.562;2022-11-15T14:46:12;16.00;90.90
27803;DHT22;15182;48.174;11.562;2022-11-15T14:48:43;16.00;91.00
27803;DHT22;15182;48.174;11.562;2022-11-15T14:51:17;16.00;91.00
27803;DHT22;15182;48.174;11.562;2022-11-15T14:53:49;16.00;91.00
27803;DHT22;15182;48.174;11.562;2022-11-15T14:56:20;15.90;91.20
27803;DHT22;15182;48.174;11.562;2022-11-15T14:58:52;15.90;91.20
27803;DHT22;15182;48.174;11.562;2022-11-15T15:01:26;15.90;91.20
27803;DHT22;15182;48.174;11.562;2022-11-15T15:03:57;15.90;91.30
27803;DHT22;15182;48.174;11.562;2022-11-15T15:06:30;15.80;91.30
27803;DHT22;15182;48.174;11.562;2022-11-15T15:09:01;15.80;91.40
27803;DHT22;15182;48.174;11.562;2022-11-15T15:11:33;15.80;91.50
27803;DHT22;15182;48.174;11.562;2022-11-15T15:14:04;15.80;91.60
27803;DHT22;15182;48.174;11.562;2022-11-15T15:16:36;15.70;91.70
27803;DHT22;15182;48.174;11.562;2022-11-15T15:19:07;15.70;91.70
27803;DHT22;15182;48.174;11.562;2022-11-15T15:21:40;15.70;91.80
27803;DHT22;15182;48.174;11.562;2022-11-15T15:24:15;15.70;91.90
27803;DHT22;15182;48.174;11.562;2022-11-15T15:26:47;15.60;91.90
27803;DHT22;15182;48.174;11.562;2022-11-15T15:29:18;15.60;91.90
27803;DHT22;15182;48.174;11.562;2022-11-15T15:31:49;15.60;92.00
27803;DHT22;15182;48.174;11.562;2022-11-15T15:34:20;15.50;92.00
27803;DHT22;15182;48.174;11.562;2022-11-15T15:37:06;15.50;92.10
27803;DHT22;15182;48.174;11.562;2022-11-15T15:39:41;15.50;92.10
27803;DHT22;15182;48.174;11.562;2022-11-15T15:42:12;15.50;92.10
27803;DHT22;15182;48.174;11.562;2022-11-15T15:44:43;15.40;92.20
27803;DHT22;15182;48.174;11.562;2022-11-15T15:47:17;15.40;92.20
27803;DHT22;15182;48.174;11.562;2022-11-15T15:49:51;15.40;92.30
27803;DHT22;15182;48.174;11.562;2022-11-15T15:52:23;15.30;92.30
27803;DHT22;15182;48.174;11.562;2022-11-15T15:54:55;15.30;92.40
27803;DHT22;15182;48.174;11.562;2022-11-15T15:57:26;15.30;92.40
27803;DHT22;15182;48.174;11.562;2022-11-15T15:59:58;15.30;92.40
27803;DHT22;15182;48.174;11.562;2022-11-15T16:02:29;15.20;92.40
27803;DHT22;15182;48.174;11.562;2022-11-15T16:05:00;15.20;92.50
27803;DHT22;15182;48.174;11.562;2022-11-15T16:07:33;15.20;92.50
27803;DHT22;15182;48.174;11.562;2022-11-15T16:10:16;15.10;92.60
27803;DHT22;15182;48.174;11.562;2022-11-15T16:12:48;15.10;92.60
27803;DHT22;15182;48.174;11.562;2022-11-15T16:15:21;15.10;92.60
27803;DHT22;15182;48.174;11.562;2022-11-15T16:17:54;15.00;92.60
27803;DHT22;15182;48.174;11.562;2022-11-15T16:20:38;15.00;92.60
27803;DHT22;15182;48.174;11.562;2022-11-15T16:23:15;15.00;92.70
27803;DHT22;15182;48.174;11.562;2022-11-15T16:25:49;14.90;92.70
27803;DHT22;15182;48.174;11.562;2022-11-15T16:28:25;14.90;92.70
27803;DHT22;15182;48.174;11.562;2022-11-15T16:31:04;14.90;93.20
27803;DHT22;15182;48.174;11.562;2022-11-15T16:33:37;14.90;92.90
27803;DHT22;15182;48.174;11.562;2022-11-15T16:36:18;14.80;92.80
27803;DHT22;15182;48.174;11.562;2022-11-15T16:38:53;14.80;93.00
27803;DHT22;15182;48.174;11.562;2022-11-15T16:41:25;14.80;92.90
27803;DHT22;15182;48.174;11.562;2022-11-15T16:43:58;14.80;93.00
27803;DHT22;15182;48.174;11.562;2022-11-15T16:46:30;14.70;93.00
27803;DHT22;15182;48.174;11.562;2022-11-15T16:49:01;14.70;93.10
27803;DHT22;15182;48.174;11.562;2022-11-15T16:51:32;14.70;93.10
27803;DHT22;15182;48.174;11.562;2022-11-15T16:54:06;14.70;93.10
27803;DHT22;15182;48.174;11.562;2022-11-15T16:56:37;14.70;93.20
27803;DHT22;15182;48.174;11.562;2022-11-15T16:59:13;14.70;93.20
27803;DHT22;15182;48.174;11.562;2022-11-15T17:01:47;14.60;93.20
27803;DHT22;15182;48.174;11.562;2022-11-15T17:04:18;14.60;93.20
27803;DHT22;15182;48.174;11.562;2022-11-15T17:06:50;14.60;93.30
27803;DHT22;15182;48.174;11.562;2022-11-15T17:09:24;14.60;93.20
27803;DHT22;15182;48.174;11.562;2022-11-15T17:11:55;14.60;93.30
27803;DHT22;15182;48.174;11.562;2022-11-15T17:14:27;14.60;93.30
27803;DHT22;15182;48.174;11.562;2022-11-15T17:16:58;14.60;93.40
27803;DHT22;15182;48.174;11.562;2022-11-15T17:19:29;14.50;93.40
27803;DHT22;15182;48.174;11.562;2022-11-15T17:22:00;14.50;93.40
27803;DHT22;15182;48.174;11.562;2022-11-15T17:24:33;14.50;93.40
27803;DHT22;15182;48.174;11.562;2022-11-15T17:27:04;14.50;93.40
27803;DHT22;15182;48.174;11.562;2022-11-15T17:29:36;14.50;93.50